Airfield :
LOGIN :

Register | Disclaimer

   EN    FR    IT 

 










Legend :    VFR   Marginal VFR   IFR   Intensive IFR   Very Intensive IFR
Visi :
Ceiling :
>= 8 km
>= 3000ft
5 to 8 km
1000 to 3000 ft
1500m to 5 km
500 to 1000 ft
800 to 1500m
200 to 500 ft
< 800m
< 200 ft
Symbols :   Thunderstorms  Fog  Heavy snow  Heavy precipitations  Wind > 20 kt
SIGMETs :     Misc.  Thunderstorms  Icing  Turbulence  Mountain Waves  Volcanic Ashes






- Airport Elevation : 622 ft
- IATA code : BRS


EGGD - Bristol Int.

CURRENT METAR :
  • 181420Z AUTO 26013KT 9999 NCD 11/M03 Q1023

EXPIRED METARs :
  • 181350Z AUTO 26013KT 220V290 9999 NCD 11/M00 Q1023
  • 181320Z AUTO 24010KT 210V270 9999 NCD 10/M01 Q1024
  • 181250Z AUTO 25010KT 210V280 9999 NCD 11/02 Q1024
  • 181220Z AUTO 25008KT 210V300 9999 NCD 11/01 Q1024
  • 181150Z AUTO 22007KT 180V290 9999 NCD 11/03 Q1024
  • 181120Z AUTO 25006KT 170V290 9999 NCD 10/03 Q1024
  • 181050Z AUTO 26004KT 170V340 9999 NCD 10/03 Q1024
  • 181020Z AUTO VRB03KT 9999 NCD 09/03 Q1024
  • 180950Z AUTO VRB03KT 9999 NCD 08/02 Q1025

TAF TAF EGGD
Valid from the 18 at 12:00 until the 19 at 12:00 UTC


181054Z 1812/1912 26012KT CAVOK
BECMG 1814/1817 BKN025
TEMPO 1823/1909 BKN009
PROB30
TEMPO 1900/1907 BKN004
BECMG 1909/1912 32014KT
PROB30
TEMPO 1909/1912 32015G25KT 9000 -SHRA
ATIS : +44 1275 473 666



MET'MAP, your aeronautical weather chart ! - Copyright ORBIFLY December 2007 - Disclaimer

ORBIFLY MET'MAP TEAM :

Programming & Development : Alexandra Zaïnal
Original concept : Baudouin d'Aumeries
Technical & hardware support : Manuel Goepfert
Assistance : Marc-Olivier Méhu




SOURCES & CREDITS :

   NOAA